createdAt,value
2023-02-16T00:01:56.020Z,0.10
2023-02-16T00:04:30.440Z,0.10
2023-02-16T00:06:57.389Z,0.10
2023-02-16T00:09:24.335Z,0.10
2023-02-16T00:12:10.432Z,0.10
2023-02-16T00:14:37.649Z,0.20
2023-02-16T00:17:04.951Z,0.30
2023-02-16T00:19:36.218Z,0.20
2023-02-16T00:22:03.003Z,0.20
2023-02-16T00:24:30.134Z,0.30
2023-02-16T00:26:57.041Z,0.20
2023-02-16T00:29:27.350Z,0.30
2023-02-16T00:31:55.130Z,0.20
2023-02-16T00:34:38.566Z,0.40
2023-02-16T00:37:07.319Z,0.30
2023-02-16T00:39:34.191Z,0.30
2023-02-16T00:42:05.664Z,0.40
2023-02-16T00:44:44.362Z,0.40
2023-02-16T00:47:31.198Z,0.40
2023-02-16T00:49:58.034Z,0.40
2023-02-16T00:52:36.894Z,0.30
2023-02-16T00:55:12.271Z,0.30
2023-02-16T00:57:42.240Z,0.30
2023-02-16T01:00:28.802Z,0.20
2023-02-16T01:02:57.767Z,0.10
2023-02-16T01:05:24.708Z,0.10
2023-02-16T01:08:10.365Z,0.00
2023-02-16T01:10:55.936Z,0.10
2023-02-16T01:13:23.239Z,-0.10
2023-02-16T01:15:50.016Z,0.00
2023-02-16T01:18:17.418Z,0.00
2023-02-16T01:20:44.432Z,0.00
2023-02-16T01:23:11.235Z,-0.10
2023-02-16T01:25:41.277Z,-0.10
2023-02-16T01:28:21.475Z,-0.10
2023-02-16T01:30:48.514Z,-0.10
2023-02-16T01:33:15.355Z,0.00
2023-02-16T01:35:42.106Z,0.00
2023-02-16T01:38:18.504Z,0.00
2023-02-16T01:41:00.179Z,0.00
2023-02-16T01:43:32.654Z,0.10
2023-02-16T01:46:11.405Z,0.10
2023-02-16T01:48:38.430Z,-0.10
2023-02-16T01:51:28.495Z,-0.20
2023-02-16T01:53:59.002Z,-0.30
2023-02-16T01:56:33.545Z,-0.40
2023-02-16T01:59:04.482Z,-0.40
2023-02-16T02:01:57.755Z,-0.40
2023-02-16T02:05:01.664Z,-0.40
2023-02-16T02:08:01.585Z,-0.30
2023-02-16T02:10:44.152Z,-0.40
2023-02-16T02:13:38.988Z,-0.30
2023-02-16T02:16:06.067Z,-0.20
2023-02-16T02:18:33.040Z,-0.10
2023-02-16T02:21:46.902Z,0.00
2023-02-16T02:24:38.240Z,0.00
2023-02-16T02:27:11.347Z,-0.20
2023-02-16T02:29:59.706Z,-0.30
2023-02-16T02:32:51.299Z,-0.30
2023-02-16T02:35:31.602Z,-0.40
2023-02-16T02:38:30.352Z,-0.40
2023-02-16T02:41:05.101Z,-0.40
2023-02-16T02:43:52.793Z,-0.40
2023-02-16T02:46:24.615Z,-0.40
2023-02-16T02:48:51.608Z,-0.50
2023-02-16T02:51:30.451Z,-0.50
2023-02-16T02:54:26.289Z,-0.60
2023-02-16T02:57:21.852Z,-0.60
2023-02-16T03:00:17.469Z,-0.60
2023-02-16T03:02:44.301Z,-0.50
2023-02-16T03:05:11.647Z,-0.50
2023-02-16T03:07:47.123Z,-0.50
2023-02-16T03:10:40.140Z,-0.50
2023-02-16T03:13:11.936Z,-0.40
2023-02-16T03:15:38.878Z,-0.30
2023-02-16T03:18:24.488Z,-0.30
2023-02-16T03:21:09.540Z,-0.30
2023-02-16T03:23:55.051Z,-0.30
2023-02-16T03:26:40.230Z,-0.30
2023-02-16T03:29:18.355Z,-0.30
2023-02-16T03:31:45.197Z,-0.40
2023-02-16T03:34:11.924Z,-0.40
2023-02-16T03:36:39.732Z,-0.50
2023-02-16T03:39:06.597Z,-0.40
2023-02-16T03:41:34.724Z,-0.50
2023-02-16T03:44:01.481Z,-0.50
2023-02-16T03:46:28.212Z,-0.50
2023-02-16T03:48:54.884Z,-0.50
2023-02-16T03:51:21.615Z,-0.60
2023-02-16T03:53:48.302Z,-0.70
2023-02-16T03:56:15.070Z,-0.70
2023-02-16T03:58:41.747Z,-0.70
2023-02-16T04:01:08.727Z,-0.80
2023-02-16T04:03:35.575Z,-0.80
2023-02-16T04:06:02.310Z,-0.80
2023-02-16T04:08:29.015Z,-0.60
2023-02-16T04:10:57.351Z,-0.50
2023-02-16T04:13:24.441Z,-0.60
2023-02-16T04:15:51.132Z,-0.60
2023-02-16T04:18:17.831Z,-0.60
2023-02-16T04:20:44.524Z,-0.70
2023-02-16T04:23:11.189Z,-0.70
2023-02-16T04:25:37.944Z,-0.80
2023-02-16T04:28:04.717Z,-0.80
2023-02-16T04:30:32.152Z,-0.80
2023-02-16T04:32:59.395Z,-0.80
2023-02-16T04:35:26.210Z,-0.70
2023-02-16T04:37:52.946Z,-0.70
2023-02-16T04:40:19.862Z,-0.70
2023-02-16T04:42:46.680Z,-0.60
2023-02-16T04:45:13.686Z,-0.60
2023-02-16T04:47:40.411Z,-0.60
2023-02-16T04:50:07.536Z,-0.60
2023-02-16T04:52:34.266Z,-0.60
2023-02-16T04:55:01.067Z,-0.70
2023-02-16T04:57:27.903Z,-0.70
2023-02-16T04:59:55.197Z,-0.70
2023-02-16T05:02:21.928Z,-0.70
2023-02-16T05:04:48.683Z,-0.70
2023-02-16T05:07:15.425Z,-0.80
2023-02-16T05:09:42.160Z,-0.70
2023-02-16T05:12:28.999Z,-0.80
2023-02-16T05:14:55.673Z,-0.70
2023-02-16T05:17:23.926Z,-0.70
2023-02-16T05:19:52.694Z,-0.60
2023-02-16T05:22:19.777Z,-0.70
2023-02-16T05:24:46.738Z,-0.60
2023-02-16T05:27:18.741Z,-0.60
2023-02-16T05:29:45.506Z,-0.50
2023-02-16T05:32:12.312Z,-0.50
2023-02-16T05:34:39.014Z,-0.70
2023-02-16T05:37:05.747Z,-0.90
2023-02-16T05:39:32.483Z,-0.90
2023-02-16T05:41:59.990Z,-0.90
2023-02-16T05:44:26.689Z,-0.90
2023-02-16T05:46:53.459Z,-0.80
2023-02-16T05:49:20.159Z,-0.80
2023-02-16T05:51:46.846Z,-0.80
2023-02-16T05:54:17.397Z,-0.80
2023-02-16T05:56:49.108Z,-0.70
2023-02-16T05:59:16.229Z,-0.70
2023-02-16T06:01:43.105Z,-0.70
2023-02-16T06:04:10.575Z,-0.60
2023-02-16T06:06:38.247Z,-0.60
2023-02-16T06:09:08.407Z,-0.50
2023-02-16T06:11:38.142Z,-0.60
2023-02-16T06:14:15.078Z,-0.60
2023-02-16T06:16:43.093Z,-0.60
2023-02-16T06:19:09.959Z,-0.50
2023-02-16T06:21:36.872Z,-0.60
2023-02-16T06:24:03.887Z,-0.50
2023-02-16T06:26:30.830Z,-0.50
2023-02-16T06:28:57.563Z,-0.50
2023-02-16T06:31:25.279Z,-0.40
2023-02-16T06:33:52.557Z,-0.40
2023-02-16T06:36:19.393Z,-0.40
2023-02-16T06:38:46.264Z,-0.40
2023-02-16T06:41:12.985Z,-0.40
2023-02-16T06:43:39.860Z,-0.40
2023-02-16T06:46:06.769Z,-0.40
2023-02-16T06:48:33.538Z,-0.40
2023-02-16T06:51:00.411Z,-0.50
2023-02-16T06:53:27.308Z,-0.30
2023-02-16T06:55:54.110Z,-0.30
2023-02-16T06:58:20.802Z,-0.20
2023-02-16T07:00:47.540Z,-0.20
2023-02-16T07:03:14.334Z,-0.20
2023-02-16T07:05:41.159Z,-0.10
2023-02-16T07:08:08.263Z,-0.10
2023-02-16T07:10:48.997Z,-0.10
2023-02-16T07:13:16.356Z,-0.10
2023-02-16T07:15:43.170Z,0.10
2023-02-16T07:18:09.867Z,0.20
2023-02-16T07:20:37.772Z,0.20
2023-02-16T07:23:04.529Z,0.30
2023-02-16T07:25:31.266Z,0.40
2023-02-16T07:27:58.037Z,0.40
2023-02-16T07:30:25.351Z,0.50
2023-02-16T07:32:52.054Z,0.50
2023-02-16T07:35:18.876Z,0.60
2023-02-16T07:37:45.649Z,0.70
2023-02-16T07:40:13.301Z,0.80
2023-02-16T07:42:41.239Z,0.90
2023-02-16T07:45:09.529Z,1.00
2023-02-16T07:47:36.249Z,1.10
2023-02-16T07:50:03.020Z,1.30
2023-02-16T07:52:31.173Z,1.30
2023-02-16T07:54:58.939Z,1.50
2023-02-16T07:57:28.921Z,1.60
2023-02-16T07:59:55.630Z,1.70
2023-02-16T08:02:23.389Z,1.80
2023-02-16T08:04:52.548Z,1.80
2023-02-16T08:07:19.320Z,1.90
2023-02-16T08:09:46.061Z,2.00
2023-02-16T08:12:28.209Z,2.00
2023-02-16T08:14:54.961Z,2.00
2023-02-16T08:17:21.690Z,2.10
2023-02-16T08:19:48.374Z,2.20
2023-02-16T08:22:15.087Z,2.20
2023-02-16T08:24:41.759Z,2.30
2023-02-16T08:27:08.415Z,2.40
2023-02-16T08:29:35.830Z,2.50
2023-02-16T08:32:07.755Z,2.60
2023-02-16T08:34:35.002Z,2.70
2023-02-16T08:37:02.196Z,2.80
2023-02-16T08:39:32.809Z,2.80
2023-02-16T08:42:00.549Z,2.80
2023-02-16T08:44:27.985Z,2.90
2023-02-16T08:46:59.275Z,2.90
2023-02-16T08:49:27.078Z,3.10
2023-02-16T08:51:55.652Z,3.20
2023-02-16T08:54:26.491Z,3.20
2023-02-16T08:56:54.180Z,3.30
2023-02-16T08:59:21.678Z,3.40
2023-02-16T09:01:48.537Z,3.60
2023-02-16T09:04:15.759Z,3.70
2023-02-16T09:06:44.061Z,3.80
2023-02-16T09:09:11.071Z,3.90
2023-02-16T09:11:37.793Z,4.00
2023-02-16T09:14:04.792Z,3.90
2023-02-16T09:16:34.706Z,4.00
2023-02-16T09:19:01.782Z,4.00
2023-02-16T09:21:32.210Z,4.10
2023-02-16T09:24:04.364Z,4.20
2023-02-16T09:26:32.668Z,4.20
2023-02-16T09:29:00.417Z,4.30
2023-02-16T09:31:29.073Z,4.40
2023-02-16T09:34:07.749Z,4.50
2023-02-16T09:36:34.660Z,4.70
2023-02-16T09:39:02.231Z,4.80
2023-02-16T09:41:37.788Z,4.90
2023-02-16T09:44:17.688Z,5.10
2023-02-16T09:46:44.463Z,5.20
2023-02-16T09:49:30.321Z,5.30
2023-02-16T09:52:02.632Z,5.40
2023-02-16T09:54:39.891Z,5.50
2023-02-16T09:57:31.226Z,5.50
2023-02-16T10:00:24.376Z,5.60
2023-02-16T10:02:52.639Z,5.60
2023-02-16T10:05:30.182Z,5.80
2023-02-16T10:08:04.327Z,5.90
2023-02-16T10:10:53.902Z,5.90
2023-02-16T10:13:54.388Z,6.00
2023-02-16T10:16:22.844Z,6.10
2023-02-16T10:18:50.174Z,6.20
2023-02-16T10:21:19.146Z,6.30
2023-02-16T10:23:51.090Z,6.40
2023-02-16T10:26:42.807Z,6.60
2023-02-16T10:29:15.626Z,6.80
2023-02-16T10:31:44.344Z,6.90
2023-02-16T10:34:23.174Z,7.00
2023-02-16T10:37:15.196Z,7.10
2023-02-16T10:39:49.585Z,7.10
2023-02-16T10:42:25.525Z,7.10
2023-02-16T10:47:54.200Z,7.20
2023-02-16T10:50:42.090Z,7.40
2023-02-16T10:53:13.982Z,7.40
2023-02-16T10:55:40.778Z,7.50
2023-02-16T10:58:15.767Z,7.60
2023-02-16T11:00:56.278Z,7.60
2023-02-16T11:03:25.362Z,7.50
2023-02-16T11:05:53.254Z,7.50
2023-02-16T11:08:20.014Z,7.60
2023-02-16T11:13:37.229Z,7.80
2023-02-16T11:16:11.827Z,7.80
2023-02-16T11:18:43.044Z,7.80
2023-02-16T11:21:10.599Z,7.80
2023-02-16T11:23:38.644Z,7.80
2023-02-16T11:26:23.833Z,7.80
2023-02-16T11:28:50.563Z,7.80
2023-02-16T11:31:33.634Z,8.00
2023-02-16T11:34:06.025Z,8.10
2023-02-16T11:36:43.295Z,8.10
2023-02-16T11:39:23.517Z,8.20
2023-02-16T11:41:55.713Z,8.20
2023-02-16T11:44:39.702Z,8.10
2023-02-16T11:47:08.923Z,8.20
2023-02-16T11:49:40.500Z,8.30
2023-02-16T11:52:23.967Z,8.40
2023-02-16T11:54:55.736Z,8.40
2023-02-16T11:57:24.508Z,8.40
2023-02-16T11:59:51.472Z,8.40
2023-02-16T12:02:45.029Z,8.30
2023-02-16T12:05:19.268Z,8.30
2023-02-16T12:08:24.676Z,8.20
2023-02-16T12:11:14.498Z,8.20
2023-02-16T12:13:55.159Z,8.20
2023-02-16T12:16:27.917Z,8.20
2023-02-16T12:18:59.288Z,8.20
2023-02-16T12:21:48.417Z,8.30
2023-02-16T12:24:27.434Z,8.40
2023-02-16T12:26:57.079Z,8.40
2023-02-16T12:29:49.800Z,8.50
2023-02-16T12:32:34.584Z,8.50
2023-02-16T12:35:18.977Z,8.50
2023-02-16T12:38:24.553Z,8.50
2023-02-16T12:40:58.472Z,8.50
2023-02-16T12:43:46.815Z,8.40
2023-02-16T12:46:47.530Z,8.40
2023-02-16T12:49:29.433Z,8.40
2023-02-16T12:52:31.671Z,8.40
2023-02-16T12:55:19.232Z,8.40
2023-02-16T12:58:04.314Z,8.40
2023-02-16T13:00:59.934Z,8.40
2023-02-16T13:03:29.074Z,8.40
2023-02-16T13:06:18.755Z,8.50
2023-02-16T13:08:52.964Z,8.50
2023-02-16T13:11:38.393Z,8.40
2023-02-16T13:14:11.734Z,8.40
2023-02-16T13:16:56.232Z,8.30
2023-02-16T13:19:23.088Z,8.30
2023-02-16T13:22:23.887Z,8.30
2023-02-16T13:25:22.012Z,8.30
2023-02-16T13:28:17.601Z,8.30
2023-02-16T13:31:06.373Z,8.30
2023-02-16T13:33:46.567Z,8.30
2023-02-16T13:36:34.036Z,8.30
2023-02-16T13:39:24.769Z,8.30
2023-02-16T13:42:07.217Z,8.30
2023-02-16T13:44:39.682Z,8.30
2023-02-16T13:47:06.546Z,8.40
2023-02-16T13:49:43.006Z,8.40
2023-02-16T13:52:32.080Z,8.40
2023-02-16T13:54:59.990Z,8.50
2023-02-16T13:57:50.767Z,8.50
2023-02-16T14:00:28.925Z,8.30
2023-02-16T14:03:22.181Z,8.30
2023-02-16T14:05:50.791Z,8.40
2023-02-16T14:08:25.372Z,8.40
2023-02-16T14:10:55.802Z,8.50
2023-02-16T14:13:37.676Z,8.50
2023-02-16T14:16:17.277Z,8.50
2023-02-16T14:19:04.344Z,8.50
2023-02-16T14:21:41.081Z,8.40
2023-02-16T14:24:22.138Z,8.50
2023-02-16T14:27:10.634Z,8.50
2023-02-16T14:29:57.709Z,8.60
2023-02-16T14:32:29.517Z,8.60
2023-02-16T14:35:08.070Z,8.60
2023-02-16T14:37:41.274Z,8.50
2023-02-16T14:40:19.435Z,8.50
2023-02-16T14:43:11.010Z,8.40
2023-02-16T14:45:42.474Z,8.40
2023-02-16T14:48:29.384Z,8.50
2023-02-16T14:51:27.219Z,8.60
2023-02-16T14:54:03.026Z,8.50
2023-02-16T14:56:49.924Z,8.50
2023-02-16T14:59:30.906Z,8.40
2023-02-16T15:01:57.857Z,8.50
2023-02-16T15:04:31.617Z,8.40
2023-02-16T15:07:00.120Z,8.60
2023-02-16T15:09:30.937Z,8.60
2023-02-16T15:12:23.252Z,8.50
2023-02-16T15:15:01.808Z,8.60
2023-02-16T15:17:31.709Z,8.60
2023-02-16T15:20:04.000Z,8.60
2023-02-16T15:22:30.652Z,8.60
2023-02-16T15:25:08.118Z,8.60
2023-02-16T15:27:34.806Z,8.70
2023-02-16T15:30:07.068Z,8.70
2023-02-16T15:32:33.879Z,8.70
2023-02-16T15:35:12.501Z,8.70
2023-02-16T15:37:40.408Z,8.70
2023-02-16T15:40:30.685Z,8.80
2023-02-16T15:43:01.492Z,8.80
2023-02-16T15:45:32.883Z,8.80
2023-02-16T15:48:24.939Z,8.90
2023-02-16T15:50:56.483Z,8.90
2023-02-16T15:53:26.449Z,8.80
2023-02-16T15:55:53.218Z,8.80
2023-02-16T15:58:20.485Z,8.80
2023-02-16T16:00:47.713Z,8.70
2023-02-16T16:03:16.880Z,8.80
2023-02-16T16:05:55.374Z,8.90
2023-02-16T16:08:22.324Z,8.90
2023-02-16T16:10:49.052Z,8.80
2023-02-16T16:13:19.297Z,8.80
2023-02-16T16:15:47.443Z,8.70
2023-02-16T16:18:46.163Z,8.80
2023-02-16T16:21:26.054Z,8.80
2023-02-16T16:24:04.026Z,8.90
2023-02-16T16:26:35.986Z,8.80
2023-02-16T16:29:02.900Z,8.80
2023-02-16T16:31:31.111Z,8.80
2023-02-16T16:34:06.977Z,8.70
2023-02-16T16:36:35.688Z,8.70
2023-02-16T16:39:11.368Z,8.60
2023-02-16T16:41:40.059Z,8.60
2023-02-16T16:44:27.311Z,8.50
2023-02-16T16:46:54.013Z,8.60
2023-02-16T16:49:20.729Z,8.50
2023-02-16T16:51:51.167Z,8.50
2023-02-16T16:54:35.701Z,8.50
2023-02-16T16:57:16.632Z,8.50
2023-02-16T16:59:43.294Z,8.40
2023-02-16T17:02:12.989Z,8.30
2023-02-16T17:04:39.669Z,8.30
2023-02-16T17:07:06.852Z,8.30
2023-02-16T17:09:33.529Z,8.20
2023-02-16T17:12:00.260Z,8.10
2023-02-16T17:14:28.350Z,8.00
2023-02-16T17:16:56.206Z,8.00
2023-02-16T17:19:23.028Z,8.10
2023-02-16T17:21:49.889Z,8.00
2023-02-16T17:24:16.619Z,8.00
2023-02-16T17:26:43.421Z,8.10
2023-02-16T17:29:10.077Z,8.00
2023-02-16T17:31:36.901Z,8.00
2023-02-16T17:34:04.358Z,8.10
2023-02-16T17:36:31.192Z,8.00
2023-02-16T17:38:58.059Z,8.00
2023-02-16T17:41:27.155Z,7.90
2023-02-16T17:43:54.078Z,7.90
2023-02-16T17:46:21.448Z,8.00
2023-02-16T17:48:50.215Z,8.00
2023-02-16T17:51:19.043Z,8.10
2023-02-16T17:53:45.733Z,8.20
2023-02-16T17:56:13.120Z,8.20
2023-02-16T17:58:39.881Z,8.20
2023-02-16T18:01:06.683Z,8.10
2023-02-16T18:03:33.490Z,8.10
2023-02-16T18:06:00.185Z,8.10
2023-02-16T18:08:26.931Z,8.00
2023-02-16T18:10:54.104Z,8.00
2023-02-16T18:13:20.893Z,8.00
2023-02-16T18:15:48.305Z,8.00
2023-02-16T18:18:15.843Z,8.00
2023-02-16T18:20:42.710Z,8.10
2023-02-16T18:23:09.473Z,8.10
2023-02-16T18:25:36.137Z,8.20
2023-02-16T18:28:02.851Z,8.20
2023-02-16T18:30:29.640Z,8.10
2023-02-16T18:32:56.430Z,8.10
2023-02-16T18:35:23.125Z,8.10
2023-02-16T18:37:49.783Z,8.20
2023-02-16T18:40:19.415Z,8.20
2023-02-16T18:42:46.687Z,8.20
2023-02-16T18:45:16.768Z,8.10
2023-02-16T18:47:45.019Z,8.20
2023-02-16T18:50:12.332Z,8.10
2023-02-16T18:52:39.365Z,8.20
2023-02-16T18:55:06.368Z,8.20
2023-02-16T18:57:33.031Z,8.20
2023-02-16T18:59:59.769Z,8.30
2023-02-16T19:02:26.655Z,8.30
2023-02-16T19:04:53.387Z,8.30
2023-02-16T19:07:20.087Z,8.40
2023-02-16T19:09:46.749Z,8.30
2023-02-16T19:12:13.446Z,8.30
2023-02-16T19:14:40.174Z,8.20
2023-02-16T19:17:06.844Z,8.20
2023-02-16T19:19:34.195Z,8.20
2023-02-16T19:22:00.889Z,8.20
2023-02-16T19:24:27.663Z,8.20
2023-02-16T19:26:54.422Z,8.20
2023-02-16T19:29:21.108Z,8.20
2023-02-16T19:31:48.055Z,8.20
2023-02-16T19:34:14.974Z,8.20
2023-02-16T19:36:41.646Z,8.30
2023-02-16T19:39:08.747Z,8.30
2023-02-16T19:41:37.288Z,8.30
2023-02-16T19:44:04.299Z,8.30
2023-02-16T19:46:32.712Z,8.30
2023-02-16T19:48:59.578Z,8.30
2023-02-16T19:51:26.791Z,8.30
2023-02-16T19:53:53.783Z,8.30
2023-02-16T19:56:22.098Z,8.20
2023-02-16T19:58:48.891Z,8.30
2023-02-16T20:01:23.284Z,8.30
2023-02-16T20:03:50.702Z,8.30
2023-02-16T20:06:22.789Z,8.40
2023-02-16T20:08:49.811Z,8.50
2023-02-16T20:11:20.182Z,8.50
2023-02-16T20:13:46.914Z,8.60
2023-02-16T20:16:15.742Z,8.60
2023-02-16T20:18:42.597Z,8.60
2023-02-16T20:21:14.328Z,8.60
2023-02-16T20:23:41.197Z,8.60
2023-02-16T20:26:10.462Z,8.60
2023-02-16T20:28:37.293Z,8.60
2023-02-16T20:31:09.341Z,8.50
2023-02-16T20:33:36.053Z,8.60
2023-02-16T20:36:03.307Z,8.50
2023-02-16T20:38:30.257Z,8.60
2023-02-16T20:40:56.942Z,8.50
2023-02-16T20:43:23.736Z,8.60
2023-02-16T20:45:50.487Z,8.60
2023-02-16T20:48:17.262Z,8.60
2023-02-16T20:50:44.001Z,8.60
2023-02-16T20:53:10.670Z,8.60
2023-02-16T20:55:37.360Z,8.60
2023-02-16T20:58:04.016Z,8.70
2023-02-16T21:00:30.859Z,8.70
2023-02-16T21:02:57.548Z,8.70
2023-02-16T21:05:38.023Z,8.80
2023-02-16T21:08:06.100Z,8.70
2023-02-16T21:10:32.849Z,8.70
2023-02-16T21:12:59.535Z,8.70
2023-02-16T21:15:26.368Z,8.70
2023-02-16T21:17:53.053Z,8.60
2023-02-16T21:20:19.883Z,8.60
2023-02-16T21:22:46.600Z,8.50
2023-02-16T21:25:13.268Z,8.50
2023-02-16T21:27:39.990Z,8.50
2023-02-16T21:30:07.203Z,8.50
2023-02-16T21:32:33.876Z,8.50
2023-02-16T21:35:00.545Z,8.50
2023-02-16T21:37:27.265Z,8.60
2023-02-16T21:40:12.445Z,8.50
2023-02-16T21:42:39.149Z,8.60
2023-02-16T21:45:16.888Z,8.60
2023-02-16T21:48:03.585Z,8.60
2023-02-16T21:50:33.503Z,8.50
2023-02-16T21:53:00.213Z,8.50
2023-02-16T21:55:45.953Z,8.40
2023-02-16T21:58:12.651Z,8.40
2023-02-16T22:00:39.565Z,8.30
2023-02-16T22:03:06.516Z,8.30
2023-02-16T22:05:33.586Z,8.30
2023-02-16T22:08:00.295Z,8.30
2023-02-16T22:10:28.384Z,8.20
2023-02-16T22:12:55.896Z,8.20
2023-02-16T22:15:22.649Z,8.20
2023-02-16T22:17:49.462Z,8.20
2023-02-16T22:20:16.780Z,8.20
2023-02-16T22:22:43.682Z,8.10
2023-02-16T22:25:11.099Z,8.20
2023-02-16T22:27:37.837Z,8.20
2023-02-16T22:30:05.396Z,8.20
2023-02-16T22:32:32.166Z,8.20
2023-02-16T22:34:58.868Z,8.20
2023-02-16T22:37:25.537Z,8.10
2023-02-16T22:39:54.989Z,8.10
2023-02-16T22:42:22.441Z,8.10
2023-02-16T22:44:49.167Z,8.10
2023-02-16T22:47:15.874Z,8.10
2023-02-16T22:49:42.694Z,8.10
2023-02-16T22:52:11.269Z,8.20
2023-02-16T22:54:38.341Z,8.20
2023-02-16T22:57:07.018Z,8.20
2023-02-16T22:59:33.836Z,8.20
2023-02-16T23:02:00.512Z,8.20
2023-02-16T23:04:27.189Z,8.20
2023-02-16T23:06:53.904Z,8.30
2023-02-16T23:09:20.725Z,8.30
2023-02-16T23:11:47.963Z,8.30
2023-02-16T23:14:17.786Z,8.20
2023-02-16T23:16:52.004Z,8.30
2023-02-16T23:19:21.838Z,8.20
2023-02-16T23:21:48.584Z,8.20
2023-02-16T23:24:17.316Z,8.20
2023-02-16T23:26:44.066Z,8.20
2023-02-16T23:29:10.800Z,8.20
2023-02-16T23:31:38.824Z,8.20
2023-02-16T23:34:05.774Z,8.10
2023-02-16T23:36:33.349Z,8.10
2023-02-16T23:39:01.012Z,8.10
2023-02-16T23:41:28.488Z,8.10
2023-02-16T23:43:56.341Z,8.10
2023-02-16T23:46:23.186Z,8.10
2023-02-16T23:48:49.959Z,8.10
2023-02-16T23:51:16.762Z,8.10
2023-02-16T23:53:43.488Z,8.10
2023-02-16T23:56:18.541Z,8.10
2023-02-16T23:58:45.319Z,8.10
